Fort Walton Beach, FL

2:53 PM CDT on July 25, 2017 (GMT -0500)
Wright Landfill | | Change Station

Elev 52 ft 30.46 °N, 86.64 °W | Updated 45 seconds ago

Partly Cloudy
Partly Cloudy
88.5 °F
Feels Like 99 °F
N
14.0
Wind Variable Wind from WNW

Today
High -- | Low -- °F
--% Chance of Precip.
Yesterday
High -- | Low -- °F
Precip. -- in
Pressure 30.10 in
Visibility 10.0 miles
Clouds Scattered Clouds 2800 ft
Scattered Clouds 22000 ft
Heat Index 99 °F
Dew Point 75 °F
Humidity 65%
Rainfall 0.00 in
Snow Depth Not available.
6:00 AM 7:45 PM
Waxing Crescent, 8% visible
METAR KHRT 251859Z 26008G17KT 10SM SCT028 SCT220 32/25 A3009 RMK SLP191 T03180246 $
Pressure 30.10 in
Visibility 10.0 miles
Clouds Scattered Clouds 2800 ft
Scattered Clouds 22000 ft
Heat Index 99 °F
Dew Point 75 °F
Humidity 65%
Rainfall 0.00 in
Snow Depth Not available.
6:00 AM 7:45 PM
Waxing Crescent, 8% visible
METAR KHRT 251859Z 26008G17KT 10SM SCT028 SCT220 32/25 A3009 RMK SLP191 T03180246 $

Get Severe Weather Alerts

Thanks for signing up!

Be on the lookout for a verification email in your inbox.

You'll start receiving the daily forecast at 6 AM.

×

10-Day Weather Forecast

Almanac

Astronomy

Jul. 25, 2017 Rise Set
Actual Time
Civil Twilight
Nautical Twilight
Astronomical Twilight
Moon
Length of Visible Light
Length of Day
Tomorrow will be .
, % of the Moon is Illuminated

Today's Extremes

State Highs State Lows

Community

WunderPhotos

Category 6

Welcome to Category 6. This is the collective home for Weather Underground's featured writeups by Dr. Jeff Masters (right), Bob Henson (left), Chris Burt, and other regular contributors.

Nearby

Air Quality

  Air Quality AQ Index Pollutant
Not available.

Snow Depth

Station Depth Elevation

Earthquake Activity

City Distance Mag. Time & Date
Minimum magnitude displayed is 2.5.

Coastal Water Temperatures

Place Temperature

Stations

Nearby Weather Stations

Station Location Temp. Windchill Dew Point Humidity Wind Precip. Elev Updated Type
                   

Watches & Warnings

There are currently no watches in effect.